sensor_id;sensor_type;location;lat;lon;timestamp;P1;durP1;ratioP1;P2;durP2;ratioP2
57467;SDS011;43311;51.196;7.518;2023-07-02T00:01:44;13.32;;;9.60;;
57467;SDS011;43311;51.196;7.518;2023-07-02T00:04:10;8.90;;;8.00;;
57467;SDS011;43311;51.196;7.518;2023-07-02T00:06:38;10.90;;;8.27;;
57467;SDS011;43311;51.196;7.518;2023-07-02T00:09:05;12.95;;;8.13;;
57467;SDS011;43311;51.196;7.518;2023-07-02T00:11:31;13.55;;;8.52;;
57467;SDS011;43311;51.196;7.518;2023-07-02T00:13:57;12.93;;;8.98;;
57467;SDS011;43311;51.196;7.518;2023-07-02T00:16:22;18.83;;;9.30;;
57467;SDS011;43311;51.196;7.518;2023-07-02T00:18:47;12.05;;;8.80;;
57467;SDS011;43311;51.196;7.518;2023-07-02T00:21:17;13.50;;;8.38;;
57467;SDS011;43311;51.196;7.518;2023-07-02T00:23:46;13.68;;;8.75;;
57467;SDS011;43311;51.196;7.518;2023-07-02T00:26:12;12.43;;;8.82;;
57467;SDS011;43311;51.196;7.518;2023-07-02T00:28:37;11.40;;;8.70;;
57467;SDS011;43311;51.196;7.518;2023-07-02T00:31:03;11.73;;;7.65;;
57467;SDS011;43311;51.196;7.518;2023-07-02T00:33:28;15.82;;;8.65;;
57467;SDS011;43311;51.196;7.518;2023-07-02T00:35:54;15.75;;;8.68;;
57467;SDS011;43311;51.196;7.518;2023-07-02T00:38:20;12.02;;;8.25;;
57467;SDS011;43311;51.196;7.518;2023-07-02T00:40:47;13.10;;;7.88;;
57467;SDS011;43311;51.196;7.518;2023-07-02T00:43:12;11.02;;;7.90;;
57467;SDS011;43311;51.196;7.518;2023-07-02T00:45:38;13.73;;;8.43;;
57467;SDS011;43311;51.196;7.518;2023-07-02T00:48:05;13.65;;;8.05;;
57467;SDS011;43311;51.196;7.518;2023-07-02T00:50:31;12.32;;;8.45;;
57467;SDS011;43311;51.196;7.518;2023-07-02T00:52:56;12.57;;;7.93;;
57467;SDS011;43311;51.196;7.518;2023-07-02T00:55:22;15.55;;;8.32;;
57467;SDS011;43311;51.196;7.518;2023-07-02T00:57:48;16.90;;;9.13;;
57467;SDS011;43311;51.196;7.518;2023-07-02T01:00:14;14.93;;;8.43;;
57467;SDS011;43311;51.196;7.518;2023-07-02T01:02:40;12.45;;;7.43;;
57467;SDS011;43311;51.196;7.518;2023-07-02T01:05:15;10.68;;;7.13;;
57467;SDS011;43311;51.196;7.518;2023-07-02T01:07:40;12.48;;;7.28;;
57467;SDS011;43311;51.196;7.518;2023-07-02T01:10:06;12.93;;;7.20;;
57467;SDS011;43311;51.196;7.518;2023-07-02T01:12:32;15.73;;;7.05;;
57467;SDS011;43311;51.196;7.518;2023-07-02T01:14:59;15.63;;;8.10;;
57467;SDS011;43311;51.196;7.518;2023-07-02T01:17:29;16.88;;;7.53;;
57467;SDS011;43311;51.196;7.518;2023-07-02T01:20:07;10.38;;;6.95;;
57467;SDS011;43311;51.196;7.518;2023-07-02T01:22:34;12.23;;;6.45;;
57467;SDS011;43311;51.196;7.518;2023-07-02T01:25:01;14.82;;;6.85;;
57467;SDS011;43311;51.196;7.518;2023-07-02T01:27:28;13.20;;;6.63;;
57467;SDS011;43311;51.196;7.518;2023-07-02T01:29:54;13.80;;;6.80;;
57467;SDS011;43311;51.196;7.518;2023-07-02T01:32:20;15.13;;;6.43;;
57467;SDS011;43311;51.196;7.518;2023-07-02T01:34:46;12.00;;;6.50;;
57467;SDS011;43311;51.196;7.518;2023-07-02T01:37:15;15.75;;;6.35;;
57467;SDS011;43311;51.196;7.518;2023-07-02T01:39:42;13.98;;;6.45;;
57467;SDS011;43311;51.196;7.518;2023-07-02T01:42:08;10.32;;;5.55;;
57467;SDS011;43311;51.196;7.518;2023-07-02T01:44:35;17.70;;;6.57;;
57467;SDS011;43311;51.196;7.518;2023-07-02T01:47:01;9.65;;;4.75;;
57467;SDS011;43311;51.196;7.518;2023-07-02T01:49:27;14.18;;;5.55;;
57467;SDS011;43311;51.196;7.518;2023-07-02T01:51:52;11.88;;;5.57;;
57467;SDS011;43311;51.196;7.518;2023-07-02T01:54:20;14.82;;;5.70;;
57467;SDS011;43311;51.196;7.518;2023-07-02T01:56:47;14.02;;;5.63;;
57467;SDS011;43311;51.196;7.518;2023-07-02T01:59:12;16.40;;;6.57;;
57467;SDS011;43311;51.196;7.518;2023-07-02T02:01:38;12.52;;;5.97;;
57467;SDS011;43311;51.196;7.518;2023-07-02T02:04:07;15.85;;;5.60;;
57467;SDS011;43311;51.196;7.518;2023-07-02T02:06:33;13.13;;;6.28;;
57467;SDS011;43311;51.196;7.518;2023-07-02T02:08:59;19.55;;;6.63;;
57467;SDS011;43311;51.196;7.518;2023-07-02T02:11:25;16.45;;;6.55;;
57467;SDS011;43311;51.196;7.518;2023-07-02T02:13:50;15.63;;;5.95;;
57467;SDS011;43311;51.196;7.518;2023-07-02T02:16:16;17.48;;;6.32;;
57467;SDS011;43311;51.196;7.518;2023-07-02T02:18:41;16.08;;;6.57;;
57467;SDS011;43311;51.196;7.518;2023-07-02T02:21:06;18.15;;;7.05;;
57467;SDS011;43311;51.196;7.518;2023-07-02T02:23:32;15.50;;;6.95;;
57467;SDS011;43311;51.196;7.518;2023-07-02T02:25:58;15.95;;;7.32;;
57467;SDS011;43311;51.196;7.518;2023-07-02T02:28:23;15.40;;;7.28;;
57467;SDS011;43311;51.196;7.518;2023-07-02T02:30:49;20.02;;;7.78;;
57467;SDS011;43311;51.196;7.518;2023-07-02T02:33:15;16.88;;;6.60;;
57467;SDS011;43311;51.196;7.518;2023-07-02T02:35:41;16.30;;;6.72;;
57467;SDS011;43311;51.196;7.518;2023-07-02T02:38:06;19.00;;;7.20;;
57467;SDS011;43311;51.196;7.518;2023-07-02T02:40:32;17.77;;;7.65;;
57467;SDS011;43311;51.196;7.518;2023-07-02T02:42:57;17.85;;;7.03;;
57467;SDS011;43311;51.196;7.518;2023-07-02T02:45:23;20.65;;;9.43;;
57467;SDS011;43311;51.196;7.518;2023-07-02T02:47:48;23.13;;;8.50;;
57467;SDS011;43311;51.196;7.518;2023-07-02T02:50:23;20.60;;;7.55;;
57467;SDS011;43311;51.196;7.518;2023-07-02T02:52:48;18.77;;;7.25;;
57467;SDS011;43311;51.196;7.518;2023-07-02T02:55:14;20.60;;;8.30;;
57467;SDS011;43311;51.196;7.518;2023-07-02T02:57:39;15.95;;;7.70;;
57467;SDS011;43311;51.196;7.518;2023-07-02T03:00:05;19.67;;;8.45;;
57467;SDS011;43311;51.196;7.518;2023-07-02T03:02:32;18.25;;;8.10;;
57467;SDS011;43311;51.196;7.518;2023-07-02T03:04:57;25.00;;;8.70;;
57467;SDS011;43311;51.196;7.518;2023-07-02T03:07:31;20.75;;;8.02;;
57467;SDS011;43311;51.196;7.518;2023-07-02T03:09:57;21.88;;;8.27;;
57467;SDS011;43311;51.196;7.518;2023-07-02T03:12:22;19.58;;;8.35;;
57467;SDS011;43311;51.196;7.518;2023-07-02T03:14:48;22.63;;;8.13;;
57467;SDS011;43311;51.196;7.518;2023-07-02T03:17:18;16.92;;;8.50;;
57467;SDS011;43311;51.196;7.518;2023-07-02T03:19:44;21.70;;;8.18;;
57467;SDS011;43311;51.196;7.518;2023-07-02T03:22:09;18.58;;;9.02;;
57467;SDS011;43311;51.196;7.518;2023-07-02T03:24:35;20.83;;;8.65;;
57467;SDS011;43311;51.196;7.518;2023-07-02T03:27:00;22.88;;;9.32;;
57467;SDS011;43311;51.196;7.518;2023-07-02T03:29:25;20.02;;;8.70;;
57467;SDS011;43311;51.196;7.518;2023-07-02T03:31:51;21.33;;;8.77;;
57467;SDS011;43311;51.196;7.518;2023-07-02T03:34:16;24.67;;;8.90;;
57467;SDS011;43311;51.196;7.518;2023-07-02T03:36:41;21.90;;;9.32;;
57467;SDS011;43311;51.196;7.518;2023-07-02T03:39:07;23.33;;;9.00;;
57467;SDS011;43311;51.196;7.518;2023-07-02T03:41:33;23.40;;;9.20;;
57467;SDS011;43311;51.196;7.518;2023-07-02T03:43:58;24.98;;;9.25;;
57467;SDS011;43311;51.196;7.518;2023-07-02T03:46:23;27.23;;;10.27;;
57467;SDS011;43311;51.196;7.518;2023-07-02T03:48:49;20.73;;;9.98;;
57467;SDS011;43311;51.196;7.518;2023-07-02T03:51:14;21.80;;;9.85;;
57467;SDS011;43311;51.196;7.518;2023-07-02T03:53:40;21.23;;;9.55;;
57467;SDS011;43311;51.196;7.518;2023-07-02T03:56:06;19.30;;;9.85;;
57467;SDS011;43311;51.196;7.518;2023-07-02T03:58:32;31.65;;;10.45;;
57467;SDS011;43311;51.196;7.518;2023-07-02T04:00:58;26.75;;;11.35;;
57467;SDS011;43311;51.196;7.518;2023-07-02T04:03:23;26.67;;;10.93;;
57467;SDS011;43311;51.196;7.518;2023-07-02T04:05:49;26.90;;;10.23;;
57467;SDS011;43311;51.196;7.518;2023-07-02T04:08:14;24.60;;;10.93;;
57467;SDS011;43311;51.196;7.518;2023-07-02T04:10:40;26.15;;;10.95;;
57467;SDS011;43311;51.196;7.518;2023-07-02T04:13:05;19.70;;;9.68;;
57467;SDS011;43311;51.196;7.518;2023-07-02T04:15:31;21.98;;;10.32;;
57467;SDS011;43311;51.196;7.518;2023-07-02T04:17:57;25.65;;;11.80;;
57467;SDS011;43311;51.196;7.518;2023-07-02T04:20:22;31.17;;;13.45;;
57467;SDS011;43311;51.196;7.518;2023-07-02T04:22:48;28.27;;;11.90;;
57467;SDS011;43311;51.196;7.518;2023-07-02T04:25:13;28.75;;;12.90;;
57467;SDS011;43311;51.196;7.518;2023-07-02T04:27:43;23.90;;;11.25;;
57467;SDS011;43311;51.196;7.518;2023-07-02T04:30:09;30.67;;;13.32;;
57467;SDS011;43311;51.196;7.518;2023-07-02T04:32:36;31.73;;;12.68;;
57467;SDS011;43311;51.196;7.518;2023-07-02T04:35:04;29.25;;;11.65;;
57467;SDS011;43311;51.196;7.518;2023-07-02T04:37:30;27.75;;;12.05;;
57467;SDS011;43311;51.196;7.518;2023-07-02T04:39:56;31.33;;;13.73;;
57467;SDS011;43311;51.196;7.518;2023-07-02T04:42:21;33.08;;;13.80;;
57467;SDS011;43311;51.196;7.518;2023-07-02T04:44:46;23.90;;;13.00;;
57467;SDS011;43311;51.196;7.518;2023-07-02T04:47:12;27.08;;;12.55;;
57467;SDS011;43311;51.196;7.518;2023-07-02T04:49:38;33.25;;;13.68;;
57467;SDS011;43311;51.196;7.518;2023-07-02T04:52:03;32.65;;;12.77;;
57467;SDS011;43311;51.196;7.518;2023-07-02T04:54:29;31.25;;;13.00;;
57467;SDS011;43311;51.196;7.518;2023-07-02T04:56:54;34.05;;;12.23;;
57467;SDS011;43311;51.196;7.518;2023-07-02T04:59:20;33.97;;;13.60;;
57467;SDS011;43311;51.196;7.518;2023-07-02T05:01:46;29.45;;;14.18;;
57467;SDS011;43311;51.196;7.518;2023-07-02T05:04:12;29.17;;;14.02;;
57467;SDS011;43311;51.196;7.518;2023-07-02T05:06:38;30.92;;;13.82;;
57467;SDS011;43311;51.196;7.518;2023-07-02T05:09:03;33.10;;;14.25;;
57467;SDS011;43311;51.196;7.518;2023-07-02T05:11:29;38.65;;;15.05;;
57467;SDS011;43311;51.196;7.518;2023-07-02T05:13:54;37.53;;;14.13;;
57467;SDS011;43311;51.196;7.518;2023-07-02T05:16:19;32.92;;;15.60;;
57467;SDS011;43311;51.196;7.518;2023-07-02T05:18:45;33.17;;;14.23;;
57467;SDS011;43311;51.196;7.518;2023-07-02T05:21:10;29.67;;;14.02;;
57467;SDS011;43311;51.196;7.518;2023-07-02T05:23:36;35.17;;;13.85;;
57467;SDS011;43311;51.196;7.518;2023-07-02T05:26:01;37.80;;;15.45;;
57467;SDS011;43311;51.196;7.518;2023-07-02T05:28:27;36.25;;;15.18;;
57467;SDS011;43311;51.196;7.518;2023-07-02T05:30:52;36.67;;;15.18;;
57467;SDS011;43311;51.196;7.518;2023-07-02T05:33:18;42.55;;;15.75;;
57467;SDS011;43311;51.196;7.518;2023-07-02T05:35:43;33.95;;;15.15;;
57467;SDS011;43311;51.196;7.518;2023-07-02T05:38:10;36.83;;;13.57;;
57467;SDS011;43311;51.196;7.518;2023-07-02T05:40:35;31.23;;;14.82;;
57467;SDS011;43311;51.196;7.518;2023-07-02T05:43:01;29.63;;;14.50;;
57467;SDS011;43311;51.196;7.518;2023-07-02T05:45:26;39.55;;;16.45;;
57467;SDS011;43311;51.196;7.518;2023-07-02T05:47:52;33.63;;;15.85;;
57467;SDS011;43311;51.196;7.518;2023-07-02T05:50:17;35.63;;;15.23;;
57467;SDS011;43311;51.196;7.518;2023-07-02T05:52:43;39.47;;;16.83;;
57467;SDS011;43311;51.196;7.518;2023-07-02T05:55:08;34.50;;;15.32;;
57467;SDS011;43311;51.196;7.518;2023-07-02T05:57:39;33.90;;;17.48;;
57467;SDS011;43311;51.196;7.518;2023-07-02T06:00:05;42.15;;;17.85;;
57467;SDS011;43311;51.196;7.518;2023-07-02T06:02:37;41.95;;;17.60;;
57467;SDS011;43311;51.196;7.518;2023-07-02T06:05:02;37.10;;;16.38;;
57467;SDS011;43311;51.196;7.518;2023-07-02T06:07:28;41.72;;;17.85;;
57467;SDS011;43311;51.196;7.518;2023-07-02T06:09:53;37.15;;;16.52;;
57467;SDS011;43311;51.196;7.518;2023-07-02T06:12:19;39.03;;;17.92;;
57467;SDS011;43311;51.196;7.518;2023-07-02T06:14:45;41.42;;;17.55;;
57467;SDS011;43311;51.196;7.518;2023-07-02T06:17:11;37.95;;;17.15;;
57467;SDS011;43311;51.196;7.518;2023-07-02T06:19:36;38.85;;;16.98;;
57467;SDS011;43311;51.196;7.518;2023-07-02T06:22:02;38.25;;;17.48;;
57467;SDS011;43311;51.196;7.518;2023-07-02T06:24:28;37.78;;;17.48;;
57467;SDS011;43311;51.196;7.518;2023-07-02T06:26:53;43.90;;;16.55;;
57467;SDS011;43311;51.196;7.518;2023-07-02T06:29:19;35.92;;;16.92;;
57467;SDS011;43311;51.196;7.518;2023-07-02T06:31:44;40.67;;;18.20;;
57467;SDS011;43311;51.196;7.518;2023-07-02T06:34:10;36.83;;;17.92;;
57467;SDS011;43311;51.196;7.518;2023-07-02T06:36:35;47.05;;;18.83;;
57467;SDS011;43311;51.196;7.518;2023-07-02T06:39:00;40.10;;;18.20;;
57467;SDS011;43311;51.196;7.518;2023-07-02T06:41:26;37.42;;;18.27;;
57467;SDS011;43311;51.196;7.518;2023-07-02T06:43:51;35.80;;;17.73;;
57467;SDS011;43311;51.196;7.518;2023-07-02T06:46:16;48.78;;;18.17;;
57467;SDS011;43311;51.196;7.518;2023-07-02T06:48:42;40.13;;;18.48;;
57467;SDS011;43311;51.196;7.518;2023-07-02T06:51:07;44.35;;;19.15;;
57467;SDS011;43311;51.196;7.518;2023-07-02T06:53:33;39.15;;;18.33;;
57467;SDS011;43311;51.196;7.518;2023-07-02T06:55:59;38.72;;;17.60;;
57467;SDS011;43311;51.196;7.518;2023-07-02T06:58:24;37.95;;;17.38;;
57467;SDS011;43311;51.196;7.518;2023-07-02T07:00:50;36.50;;;17.20;;
57467;SDS011;43311;51.196;7.518;2023-07-02T07:03:16;37.70;;;17.25;;
57467;SDS011;43311;51.196;7.518;2023-07-02T07:05:41;39.38;;;17.00;;
57467;SDS011;43311;51.196;7.518;2023-07-02T07:08:07;41.25;;;18.23;;
57467;SDS011;43311;51.196;7.518;2023-07-02T07:10:33;34.20;;;16.98;;
57467;SDS011;43311;51.196;7.518;2023-07-02T07:13:02;37.33;;;16.75;;
57467;SDS011;43311;51.196;7.518;2023-07-02T07:15:32;32.20;;;16.90;;
57467;SDS011;43311;51.196;7.518;2023-07-02T07:17:59;36.25;;;15.95;;
57467;SDS011;43311;51.196;7.518;2023-07-02T07:20:25;36.92;;;16.15;;
57467;SDS011;43311;51.196;7.518;2023-07-02T07:22:50;35.75;;;15.63;;
57467;SDS011;43311;51.196;7.518;2023-07-02T07:25:15;28.80;;;14.55;;
57467;SDS011;43311;51.196;7.518;2023-07-02T07:27:41;36.80;;;15.77;;
57467;SDS011;43311;51.196;7.518;2023-07-02T07:30:06;32.33;;;14.32;;
57467;SDS011;43311;51.196;7.518;2023-07-02T07:32:32;34.75;;;15.18;;
57467;SDS011;43311;51.196;7.518;2023-07-02T07:34:57;32.67;;;14.65;;
57467;SDS011;43311;51.196;7.518;2023-07-02T07:37:23;37.40;;;15.40;;
57467;SDS011;43311;51.196;7.518;2023-07-02T07:39:50;37.60;;;14.85;;
57467;SDS011;43311;51.196;7.518;2023-07-02T07:42:15;33.28;;;13.52;;
57467;SDS011;43311;51.196;7.518;2023-07-02T07:44:42;35.70;;;14.15;;
57467;SDS011;43311;51.196;7.518;2023-07-02T07:47:07;30.67;;;12.10;;
57467;SDS011;43311;51.196;7.518;2023-07-02T07:49:33;33.88;;;13.38;;
57467;SDS011;43311;51.196;7.518;2023-07-02T07:51:58;35.40;;;13.55;;
57467;SDS011;43311;51.196;7.518;2023-07-02T07:54:23;28.60;;;12.73;;
57467;SDS011;43311;51.196;7.518;2023-07-02T07:56:50;34.50;;;13.35;;
57467;SDS011;43311;51.196;7.518;2023-07-02T07:59:15;32.38;;;13.90;;
57467;SDS011;43311;51.196;7.518;2023-07-02T08:01:40;30.38;;;11.57;;
57467;SDS011;43311;51.196;7.518;2023-07-02T08:04:06;27.48;;;11.57;;
57467;SDS011;43311;51.196;7.518;2023-07-02T08:06:31;32.88;;;11.85;;
57467;SDS011;43311;51.196;7.518;2023-07-02T08:08:57;32.00;;;12.45;;
57467;SDS011;43311;51.196;7.518;2023-07-02T08:11:22;35.22;;;12.05;;
57467;SDS011;43311;51.196;7.518;2023-07-02T08:13:48;30.73;;;11.55;;
57467;SDS011;43311;51.196;7.518;2023-07-02T08:16:13;29.38;;;11.55;;
57467;SDS011;43311;51.196;7.518;2023-07-02T08:18:38;32.83;;;11.25;;
57467;SDS011;43311;51.196;7.518;2023-07-02T08:21:04;26.38;;;11.40;;
57467;SDS011;43311;51.196;7.518;2023-07-02T08:23:31;30.02;;;11.57;;
57467;SDS011;43311;51.196;7.518;2023-07-02T08:25:57;24.80;;;11.77;;
57467;SDS011;43311;51.196;7.518;2023-07-02T08:28:22;34.42;;;12.00;;
57467;SDS011;43311;51.196;7.518;2023-07-02T08:30:48;27.92;;;11.77;;
57467;SDS011;43311;51.196;7.518;2023-07-02T08:33:13;30.75;;;13.38;;
57467;SDS011;43311;51.196;7.518;2023-07-02T08:35:38;27.40;;;12.10;;
57467;SDS011;43311;51.196;7.518;2023-07-02T08:38:04;33.38;;;14.40;;
57467;SDS011;43311;51.196;7.518;2023-07-02T08:40:29;32.13;;;11.35;;
57467;SDS011;43311;51.196;7.518;2023-07-02T08:42:55;33.75;;;11.57;;
57467;SDS011;43311;51.196;7.518;2023-07-02T08:45:20;30.25;;;11.35;;
57467;SDS011;43311;51.196;7.518;2023-07-02T08:47:49;28.33;;;11.38;;
57467;SDS011;43311;51.196;7.518;2023-07-02T08:50:15;31.42;;;12.10;;
57467;SDS011;43311;51.196;7.518;2023-07-02T08:52:42;25.23;;;11.02;;
57467;SDS011;43311;51.196;7.518;2023-07-02T08:55:10;27.33;;;11.60;;
57467;SDS011;43311;51.196;7.518;2023-07-02T08:57:35;32.58;;;11.82;;
57467;SDS011;43311;51.196;7.518;2023-07-02T09:00:04;23.23;;;10.63;;
57467;SDS011;43311;51.196;7.518;2023-07-02T09:02:33;33.90;;;12.25;;
57467;SDS011;43311;51.196;7.518;2023-07-02T09:04:59;30.13;;;12.38;;
57467;SDS011;43311;51.196;7.518;2023-07-02T09:07:25;29.10;;;11.95;;
57467;SDS011;43311;51.196;7.518;2023-07-02T09:09:51;28.13;;;12.07;;
57467;SDS011;43311;51.196;7.518;2023-07-02T09:15:01;34.42;;;11.48;;
57467;SDS011;43311;51.196;7.518;2023-07-02T09:17:31;26.42;;;11.30;;
57467;SDS011;43311;51.196;7.518;2023-07-02T09:19:59;26.42;;;10.57;;
57467;SDS011;43311;51.196;7.518;2023-07-02T09:22:25;26.13;;;10.55;;
57467;SDS011;43311;51.196;7.518;2023-07-02T09:24:55;35.83;;;11.30;;
57467;SDS011;43311;51.196;7.518;2023-07-02T09:27:43;26.65;;;11.23;;
57467;SDS011;43311;51.196;7.518;2023-07-02T09:30:10;32.20;;;10.95;;
57467;SDS011;43311;51.196;7.518;2023-07-02T09:32:38;27.77;;;11.15;;
57467;SDS011;43311;51.196;7.518;2023-07-02T09:35:04;32.63;;;12.60;;
57467;SDS011;43311;51.196;7.518;2023-07-02T09:37:30;29.40;;;11.85;;
57467;SDS011;43311;51.196;7.518;2023-07-02T09:39:56;25.20;;;11.43;;
57467;SDS011;43311;51.196;7.518;2023-07-02T09:42:21;25.10;;;12.15;;
57467;SDS011;43311;51.196;7.518;2023-07-02T09:44:47;29.23;;;11.85;;
57467;SDS011;43311;51.196;7.518;2023-07-02T09:47:14;27.98;;;12.27;;
57467;SDS011;43311;51.196;7.518;2023-07-02T09:49:45;30.30;;;12.43;;
57467;SDS011;43311;51.196;7.518;2023-07-02T09:52:13;32.55;;;12.70;;
57467;SDS011;43311;51.196;7.518;2023-07-02T09:54:38;28.05;;;12.95;;
57467;SDS011;43311;51.196;7.518;2023-07-02T09:57:04;28.10;;;10.75;;
57467;SDS011;43311;51.196;7.518;2023-07-02T09:59:33;35.45;;;12.93;;
57467;SDS011;43311;51.196;7.518;2023-07-02T10:01:59;27.75;;;12.15;;
57467;SDS011;43311;51.196;7.518;2023-07-02T10:04:25;36.55;;;13.32;;
57467;SDS011;43311;51.196;7.518;2023-07-02T10:06:51;32.03;;;12.25;;
57467;SDS011;43311;51.196;7.518;2023-07-02T10:09:19;34.80;;;12.68;;
57467;SDS011;43311;51.196;7.518;2023-07-02T10:11:45;29.02;;;12.30;;
57467;SDS011;43311;51.196;7.518;2023-07-02T10:14:11;27.63;;;10.77;;
57467;SDS011;43311;51.196;7.518;2023-07-02T10:16:52;29.17;;;11.38;;
57467;SDS011;43311;51.196;7.518;2023-07-02T10:19:19;38.92;;;11.82;;
57467;SDS011;43311;51.196;7.518;2023-07-02T10:21:45;29.80;;;11.63;;
57467;SDS011;43311;51.196;7.518;2023-07-02T10:24:19;29.35;;;12.43;;
57467;SDS011;43311;51.196;7.518;2023-07-02T10:26:51;30.23;;;12.13;;
57467;SDS011;43311;51.196;7.518;2023-07-02T10:29:19;30.15;;;13.00;;
57467;SDS011;43311;51.196;7.518;2023-07-02T10:31:49;34.28;;;12.88;;
57467;SDS011;43311;51.196;7.518;2023-07-02T10:34:15;27.83;;;12.65;;
57467;SDS011;43311;51.196;7.518;2023-07-02T10:36:41;35.63;;;13.25;;
57467;SDS011;43311;51.196;7.518;2023-07-02T10:39:06;32.00;;;12.50;;
57467;SDS011;43311;51.196;7.518;2023-07-02T10:41:33;35.33;;;13.05;;
57467;SDS011;43311;51.196;7.518;2023-07-02T10:44:08;37.17;;;13.60;;
57467;SDS011;43311;51.196;7.518;2023-07-02T10:46:34;30.27;;;13.30;;
57467;SDS011;43311;51.196;7.518;2023-07-02T10:49:08;36.25;;;13.23;;
57467;SDS011;43311;51.196;7.518;2023-07-02T10:51:34;33.42;;;12.98;;
57467;SDS011;43311;51.196;7.518;2023-07-02T10:54:00;32.30;;;13.13;;
57467;SDS011;43311;51.196;7.518;2023-07-02T10:56:27;32.97;;;12.35;;
57467;SDS011;43311;51.196;7.518;2023-07-02T10:58:53;33.95;;;13.40;;
57467;SDS011;43311;51.196;7.518;2023-07-02T11:01:23;37.65;;;14.75;;
57467;SDS011;43311;51.196;7.518;2023-07-02T11:03:55;37.08;;;14.45;;
57467;SDS011;43311;51.196;7.518;2023-07-02T11:06:24;33.88;;;13.93;;
57467;SDS011;43311;51.196;7.518;2023-07-02T11:08:51;37.83;;;13.55;;
57467;SDS011;43311;51.196;7.518;2023-07-02T11:11:16;42.80;;;14.52;;
57467;SDS011;43311;51.196;7.518;2023-07-02T11:13:45;32.95;;;14.30;;
57467;SDS011;43311;51.196;7.518;2023-07-02T11:18:54;34.20;;;14.45;;
57467;SDS011;43311;51.196;7.518;2023-07-02T11:21:34;36.83;;;15.15;;
57467;SDS011;43311;51.196;7.518;2023-07-02T11:24:06;37.03;;;14.75;;
57467;SDS011;43311;51.196;7.518;2023-07-02T11:26:38;33.13;;;12.98;;
57467;SDS011;43311;51.196;7.518;2023-07-02T11:29:07;33.78;;;13.95;;
57467;SDS011;43311;51.196;7.518;2023-07-02T11:31:36;34.20;;;14.85;;
57467;SDS011;43311;51.196;7.518;2023-07-02T11:34:01;33.70;;;15.10;;
57467;SDS011;43311;51.196;7.518;2023-07-02T11:36:26;35.75;;;13.82;;
57467;SDS011;43311;51.196;7.518;2023-07-02T11:38:54;35.97;;;14.25;;
57467;SDS011;43311;51.196;7.518;2023-07-02T11:41:20;36.83;;;14.35;;
57467;SDS011;43311;51.196;7.518;2023-07-02T11:43:46;34.35;;;15.45;;
57467;SDS011;43311;51.196;7.518;2023-07-02T11:46:12;35.05;;;14.70;;
57467;SDS011;43311;51.196;7.518;2023-07-02T11:48:38;34.50;;;15.38;;
57467;SDS011;43311;51.196;7.518;2023-07-02T11:51:04;28.92;;;12.90;;
57467;SDS011;43311;51.196;7.518;2023-07-02T11:53:29;33.38;;;12.80;;
57467;SDS011;43311;51.196;7.518;2023-07-02T11:55:54;30.60;;;13.02;;
57467;SDS011;43311;51.196;7.518;2023-07-02T11:58:20;27.45;;;13.30;;
57467;SDS011;43311;51.196;7.518;2023-07-02T12:00:45;30.33;;;12.30;;
57467;SDS011;43311;51.196;7.518;2023-07-02T12:03:10;28.58;;;11.73;;
57467;SDS011;43311;51.196;7.518;2023-07-02T12:05:37;24.50;;;11.95;;
57467;SDS011;43311;51.196;7.518;2023-07-02T12:08:02;28.58;;;11.68;;
57467;SDS011;43311;51.196;7.518;2023-07-02T12:10:28;25.60;;;11.02;;
57467;SDS011;43311;51.196;7.518;2023-07-02T12:12:53;26.73;;;11.85;;
57467;SDS011;43311;51.196;7.518;2023-07-02T12:15:19;31.45;;;13.13;;
57467;SDS011;43311;51.196;7.518;2023-07-02T12:17:44;28.25;;;12.27;;
57467;SDS011;43311;51.196;7.518;2023-07-02T12:20:09;31.85;;;11.80;;
57467;SDS011;43311;51.196;7.518;2023-07-02T12:22:35;36.35;;;13.73;;
57467;SDS011;43311;51.196;7.518;2023-07-02T12:25:00;27.15;;;11.55;;
57467;SDS011;43311;51.196;7.518;2023-07-02T12:27:26;29.80;;;12.80;;
57467;SDS011;43311;51.196;7.518;2023-07-02T12:29:52;25.95;;;11.65;;
57467;SDS011;43311;51.196;7.518;2023-07-02T12:32:18;31.10;;;11.63;;
57467;SDS011;43311;51.196;7.518;2023-07-02T12:34:43;30.10;;;11.55;;
57467;SDS011;43311;51.196;7.518;2023-07-02T12:37:08;27.77;;;10.93;;
57467;SDS011;43311;51.196;7.518;2023-07-02T12:39:34;33.80;;;11.63;;
57467;SDS011;43311;51.196;7.518;2023-07-02T12:41:59;25.15;;;9.77;;
57467;SDS011;43311;51.196;7.518;2023-07-02T12:44:25;25.58;;;11.10;;
57467;SDS011;43311;51.196;7.518;2023-07-02T12:46:51;30.15;;;10.55;;
57467;SDS011;43311;51.196;7.518;2023-07-02T12:49:16;25.48;;;9.95;;
57467;SDS011;43311;51.196;7.518;2023-07-02T12:51:41;21.00;;;9.13;;
57467;SDS011;43311;51.196;7.518;2023-07-02T12:54:07;23.70;;;9.45;;
57467;SDS011;43311;51.196;7.518;2023-07-02T12:56:32;22.50;;;9.55;;
57467;SDS011;43311;51.196;7.518;2023-07-02T12:58:57;22.05;;;8.93;;
57467;SDS011;43311;51.196;7.518;2023-07-02T13:01:23;26.45;;;10.75;;
57467;SDS011;43311;51.196;7.518;2023-07-02T13:03:49;32.58;;;9.95;;
57467;SDS011;43311;51.196;7.518;2023-07-02T13:06:14;22.98;;;9.57;;
57467;SDS011;43311;51.196;7.518;2023-07-02T13:08:40;24.75;;;9.02;;
57467;SDS011;43311;51.196;7.518;2023-07-02T13:11:05;20.23;;;10.20;;
57467;SDS011;43311;51.196;7.518;2023-07-02T13:13:31;23.70;;;9.13;;
57467;SDS011;43311;51.196;7.518;2023-07-02T13:15:56;24.02;;;9.65;;
57467;SDS011;43311;51.196;7.518;2023-07-02T13:18:22;16.15;;;8.27;;
57467;SDS011;43311;51.196;7.518;2023-07-02T13:20:48;19.70;;;8.13;;
57467;SDS011;43311;51.196;7.518;2023-07-02T13:23:13;19.75;;;9.32;;
57467;SDS011;43311;51.196;7.518;2023-07-02T13:25:38;21.08;;;9.20;;
57467;SDS011;43311;51.196;7.518;2023-07-02T13:28:04;19.40;;;8.65;;
57467;SDS011;43311;51.196;7.518;2023-07-02T13:30:30;20.08;;;7.85;;
57467;SDS011;43311;51.196;7.518;2023-07-02T13:32:56;20.98;;;8.48;;
57467;SDS011;43311;51.196;7.518;2023-07-02T13:35:22;20.95;;;8.52;;
57467;SDS011;43311;51.196;7.518;2023-07-02T13:37:47;24.85;;;8.63;;
57467;SDS011;43311;51.196;7.518;2023-07-02T13:40:13;20.85;;;7.82;;
57467;SDS011;43311;51.196;7.518;2023-07-02T13:42:40;16.77;;;7.50;;
57467;SDS011;43311;51.196;7.518;2023-07-02T13:45:07;17.88;;;7.25;;
57467;SDS011;43311;51.196;7.518;2023-07-02T13:47:33;18.85;;;8.02;;
57467;SDS011;43311;51.196;7.518;2023-07-02T13:49:59;21.67;;;7.85;;
57467;SDS011;43311;51.196;7.518;2023-07-02T13:52:24;19.42;;;7.25;;
57467;SDS011;43311;51.196;7.518;2023-07-02T13:54:50;16.90;;;7.15;;
57467;SDS011;43311;51.196;7.518;2023-07-02T13:57:15;17.73;;;7.55;;
57467;SDS011;43311;51.196;7.518;2023-07-02T13:59:40;15.20;;;6.75;;
57467;SDS011;43311;51.196;7.518;2023-07-02T14:02:05;16.48;;;6.85;;
57467;SDS011;43311;51.196;7.518;2023-07-02T14:04:31;19.48;;;7.40;;
57467;SDS011;43311;51.196;7.518;2023-07-02T14:06:57;16.13;;;7.05;;
57467;SDS011;43311;51.196;7.518;2023-07-02T14:09:22;21.48;;;7.35;;
57467;SDS011;43311;51.196;7.518;2023-07-02T14:11:47;14.80;;;6.88;;
57467;SDS011;43311;51.196;7.518;2023-07-02T14:14:13;17.38;;;6.80;;
57467;SDS011;43311;51.196;7.518;2023-07-02T14:16:38;15.68;;;6.90;;
57467;SDS011;43311;51.196;7.518;2023-07-02T14:19:04;15.98;;;6.60;;
57467;SDS011;43311;51.196;7.518;2023-07-02T14:21:29;17.50;;;6.50;;
57467;SDS011;43311;51.196;7.518;2023-07-02T14:23:54;15.20;;;6.95;;
57467;SDS011;43311;51.196;7.518;2023-07-02T14:26:20;18.73;;;6.55;;